Time;durP1;ratioP1;P1;durP2;ratioP2;P2;SDS_P1;SDS_P2;PMS_P1;PMS_P2;Temp;Humidity;BMP_temperature;BMP_pressure;BME280_temperature;BME280_humidity;BME280_pressure;Samples;Min_cycle;Max_cycle;Signal;HPM_P1;HPM_P2
2022/11/26 00:02:20;;;;;;;39.90;7.68;;;;;;;;;;5024384;28;20124;-58
2022/11/26 00:04:47;;;;;;;33.70;7.78;;;;;;;;;;5022602;28;20026;-60
2022/11/26 00:07:17;;;;;;;33.38;7.75;;;;;;;;;;5022038;28;20025;-57
2022/11/26 00:09:44;;;;;;;35.30;7.50;;;;;;;;;;5022524;28;20057;-59
2022/11/26 00:12:16;;;;;;;35.92;7.22;;;;;;;;;;5024883;28;20479;-59
2022/11/26 00:14:43;;;;;;;42.38;8.82;;;;;;;;;;5038043;28;20056;-62
2022/11/26 00:17:17;;;;;;;36.65;7.32;;;;;;;;;;5023466;28;20017;-61
2022/11/26 00:19:44;;;;;;;43.15;8.77;;;;;;;;;;5038269;28;20029;-62
2022/11/26 00:22:25;;;;;;;44.70;9.00;;;;;;;;;;5032728;28;20527;-61
2022/11/26 00:24:53;;;;;;;35.13;7.47;;;;;;;;;;5026365;28;20395;-60
2022/11/26 00:27:20;;;;;;;30.73;7.82;;;;;;;;;;5028934;28;20104;-62
2022/11/26 00:29:47;;;;;;;30.27;8.25;;;;;;;;;;5028653;28;20037;-62
2022/11/26 00:32:16;;;;;;;55.60;9.77;;;;;;;;;;5032546;28;20037;-63
2022/11/26 00:34:43;;;;;;;57.47;9.48;;;;;;;;;;5032910;28;20329;-63
2022/11/26 00:37:20;;;;;;;37.83;8.45;;;;;;;;;;5033780;28;20566;-64
2022/11/26 00:39:48;;;;;;;46.08;8.95;;;;;;;;;;5033582;28;20039;-60
2022/11/26 00:42:15;;;;;;;46.55;8.60;;;;;;;;;;5032122;28;20029;-61
2022/11/26 00:44:42;;;;;;;50.53;8.60;;;;;;;;;;5033098;28;20519;-61
2022/11/26 00:47:09;;;;;;;43.70;8.82;;;;;;;;;;5025633;28;20086;-59
2022/11/26 00:49:36;;;;;;;50.33;9.45;;;;;;;;;;5027356;28;20045;-60
2022/11/26 00:52:04;;;;;;;58.80;10.15;;;;;;;;;;5023652;28;20033;-59
2022/11/26 00:54:31;;;;;;;61.00;10.75;;;;;;;;;;5025386;28;20025;-58
2022/11/26 00:56:58;;;;;;;55.15;10.13;;;;;;;;;;5025574;28;20076;-58
2022/11/26 00:59:25;;;;;;;53.67;9.63;;;;;;;;;;5024250;28;20030;-57
2022/11/26 01:01:52;;;;;;;38.95;9.77;;;;;;;;;;5024170;28;20383;-57
2022/11/26 01:04:18;;;;;;;49.60;12.88;;;;;;;;;;5024771;28;20033;-48
2022/11/26 01:06:46;;;;;;;45.83;11.60;;;;;;;;;;5023341;28;20083;-55
2022/11/26 01:09:21;;;;;;;57.58;14.40;;;;;;;;;;5023741;28;20044;-58
2022/11/26 01:11:48;;;;;;;43.80;12.30;;;;;;;;;;5025084;28;20025;-56
2022/11/26 01:14:19;;;;;;;52.05;12.65;;;;;;;;;;5024441;28;20057;-52
2022/11/26 01:16:46;;;;;;;49.35;12.68;;;;;;;;;;5022751;28;20655;-54
2022/11/26 01:19:15;;;;;;;49.78;13.05;;;;;;;;;;5023952;28;20029;-62
2022/11/26 01:21:42;;;;;;;49.90;13.80;;;;;;;;;;5024887;28;20033;-58
2022/11/26 01:24:09;;;;;;;62.55;14.20;;;;;;;;;;5023134;28;20033;-57
2022/11/26 01:26:40;;;;;;;48.38;13.15;;;;;;;;;;5030260;28;20056;-58
2022/11/26 01:29:10;;;;;;;55.83;13.63;;;;;;;;;;5032451;28;20033;-57
2022/11/26 01:31:37;;;;;;;55.60;14.00;;;;;;;;;;5041839;28;20116;-58
2022/11/26 01:34:04;;;;;;;48.47;13.32;;;;;;;;;;5032091;28;20045;-59
2022/11/26 01:36:33;;;;;;;61.53;14.35;;;;;;;;;;5031975;28;20044;-61
2022/11/26 01:39:00;;;;;;;51.53;13.18;;;;;;;;;;5034012;28;20025;-59
2022/11/26 01:41:27;;;;;;;53.13;13.65;;;;;;;;;;5030239;28;20030;-60
2022/11/26 01:43:56;;;;;;;60.97;15.43;;;;;;;;;;5032086;28;20056;-61
2022/11/26 01:46:25;;;;;;;81.55;25.05;;;;;;;;;;5019216;28;20088;-60
2022/11/26 01:48:52;;;;;;;94.57;28.35;;;;;;;;;;5028448;28;20044;-60
2022/11/26 01:51:26;;;;;;;103.70;32.05;;;;;;;;;;5033980;28;20021;-60
2022/11/26 01:54:02;;;;;;;120.25;36.55;;;;;;;;;;5033622;28;20040;-59
2022/11/26 01:56:29;;;;;;;102.47;35.40;;;;;;;;;;5033564;28;20398;-58
2022/11/26 01:59:16;;;;;;;88.97;33.60;;;;;;;;;;5033716;28;20544;-59
2022/11/26 02:01:43;;;;;;;88.97;33.88;;;;;;;;;;5029716;28;20046;-59
2022/11/26 02:04:16;;;;;;;82.93;31.92;;;;;;;;;;5033478;28;20026;-58
2022/11/26 02:06:45;;;;;;;81.15;30.40;;;;;;;;;;5033811;28;20033;-58
2022/11/26 02:09:12;;;;;;;84.35;31.73;;;;;;;;;;5032573;28;20052;-61
2022/11/26 02:11:39;;;;;;;77.35;28.63;;;;;;;;;;5033096;28;20092;-60
2022/11/26 02:14:18;;;;;;;75.65;27.45;;;;;;;;;;5033477;28;20498;-60
2022/11/26 02:16:54;;;;;;;64.78;25.55;;;;;;;;;;5033126;28;20079;-59
2022/11/26 02:19:33;;;;;;;64.65;25.40;;;;;;;;;;5032971;28;20044;-58
2022/11/26 02:22:12;;;;;;;60.40;23.77;;;;;;;;;;5033405;28;20502;-58
2022/11/26 02:25:18;;;;;;;59.08;22.08;;;;;;;;;;5032802;28;20089;-59
2022/11/26 02:27:47;;;;;;;58.88;20.55;;;;;;;;;;4972344;28;20049;-59
2022/11/26 02:30:16;;;;;;;57.15;15.27;;;;;;;;;;4971715;28;20035;-59
2022/11/26 02:32:43;;;;;;;48.30;14.82;;;;;;;;;;5003508;28;20044;-59
2022/11/26 02:35:14;;;;;;;50.15;15.00;;;;;;;;;;5033054;28;20029;-59
2022/11/26 02:38:02;;;;;;;52.38;16.77;;;;;;;;;;5032394;28;20422;-61
2022/11/26 02:40:29;;;;;;;56.80;16.00;;;;;;;;;;5023371;28;20041;-60
2022/11/26 02:42:57;;;;;;;55.75;15.98;;;;;;;;;;5021509;28;20033;-62
2022/11/26 02:45:31;;;;;;;43.92;11.00;;;;;;;;;;5019831;28;20037;-62
2022/11/26 02:48:00;;;;;;;42.35;9.57;;;;;;;;;;5022523;28;20411;-61
2022/11/26 02:50:33;;;;;;;48.15;13.70;;;;;;;;;;5022633;28;20375;-61
2022/11/26 02:53:00;;;;;;;52.58;15.27;;;;;;;;;;5030932;28;20458;-61
2022/11/26 02:55:32;;;;;;;48.38;15.48;;;;;;;;;;5026268;28;20116;-63
2022/11/26 02:57:59;;;;;;;43.90;15.40;;;;;;;;;;5026543;28;20044;-61
2022/11/26 03:00:27;;;;;;;51.78;16.83;;;;;;;;;;5007548;28;20056;-61
2022/11/26 03:03:24;;;;;;;50.80;15.38;;;;;;;;;;5028423;28;20025;-62
2022/11/26 03:06:02;;;;;;;43.53;15.23;;;;;;;;;;5020042;28;20044;-61
2022/11/26 03:08:30;;;;;;;42.78;14.57;;;;;;;;;;5027733;28;20034;-61
2022/11/26 03:10:57;;;;;;;43.58;13.45;;;;;;;;;;5022773;28;20054;-62
2022/11/26 03:13:25;;;;;;;48.47;14.70;;;;;;;;;;5022906;28;20026;-62
2022/11/26 03:15:52;;;;;;;50.38;15.20;;;;;;;;;;5022750;28;20026;-61
2022/11/26 03:18:19;;;;;;;44.72;15.40;;;;;;;;;;5033151;28;20025;-62
2022/11/26 03:20:46;;;;;;;41.88;13.90;;;;;;;;;;5024346;28;20038;-62
2022/11/26 03:23:13;;;;;;;45.05;14.90;;;;;;;;;;5015365;28;20496;-63
2022/11/26 03:25:40;;;;;;;37.22;14.32;;;;;;;;;;5013116;28;20491;-61
2022/11/26 03:28:07;;;;;;;41.83;14.15;;;;;;;;;;5013020;28;20383;-61
2022/11/26 03:30:34;;;;;;;39.60;14.85;;;;;;;;;;5013148;28;20033;-61
2022/11/26 03:33:01;;;;;;;43.85;14.75;;;;;;;;;;5013037;28;20076;-60
2022/11/26 03:35:28;;;;;;;38.25;14.63;;;;;;;;;;5013021;28;20073;-61
2022/11/26 03:37:55;;;;;;;36.42;13.23;;;;;;;;;;5012919;28;20060;-60
2022/11/26 03:40:22;;;;;;;37.83;13.00;;;;;;;;;;5012882;28;20026;-60
2022/11/26 03:42:49;;;;;;;37.20;13.95;;;;;;;;;;5012920;28;20030;-61
2022/11/26 03:45:16;;;;;;;40.20;13.77;;;;;;;;;;5012988;28;20026;-60
2022/11/26 03:47:43;;;;;;;36.95;13.93;;;;;;;;;;5012720;28;20162;-60
2022/11/26 03:50:10;;;;;;;35.72;13.05;;;;;;;;;;5012898;28;20076;-60
2022/11/26 03:52:37;;;;;;;39.78;13.32;;;;;;;;;;5012700;28;20542;-60
2022/11/26 03:55:05;;;;;;;37.28;13.13;;;;;;;;;;5016042;28;20061;-60
2022/11/26 03:57:31;;;;;;;34.78;12.57;;;;;;;;;;5016701;28;20034;-60
2022/11/26 03:59:58;;;;;;;34.90;13.55;;;;;;;;;;5016704;28;20034;-60
2022/11/26 04:02:25;;;;;;;32.40;11.82;;;;;;;;;;5016827;28;20029;-60
2022/11/26 04:04:52;;;;;;;35.17;12.65;;;;;;;;;;5016867;28;20018;-60
2022/11/26 04:07:19;;;;;;;34.08;12.65;;;;;;;;;;5016569;28;20423;-61
2022/11/26 04:09:46;;;;;;;33.20;12.52;;;;;;;;;;5016489;28;20050;-60
2022/11/26 04:12:13;;;;;;;33.13;12.27;;;;;;;;;;5016593;28;20033;-60
2022/11/26 04:14:40;;;;;;;30.40;12.45;;;;;;;;;;5016612;28;20025;-60
2022/11/26 04:17:07;;;;;;;31.40;11.43;;;;;;;;;;5016520;28;20018;-60
2022/11/26 04:19:34;;;;;;;34.42;13.25;;;;;;;;;;5016378;28;20030;-60
2022/11/26 04:22:01;;;;;;;29.90;11.90;;;;;;;;;;5016516;28;20034;-60
2022/11/26 04:24:28;;;;;;;29.48;11.38;;;;;;;;;;5016344;28;20022;-60
2022/11/26 04:26:55;;;;;;;29.27;11.65;;;;;;;;;;5016278;28;20109;-60
2022/11/26 04:29:22;;;;;;;26.92;11.25;;;;;;;;;;5016272;28;20606;-60
2022/11/26 04:31:49;;;;;;;29.17;11.50;;;;;;;;;;5016348;28;20494;-60
2022/11/26 04:34:16;;;;;;;26.92;11.45;;;;;;;;;;5016149;28;20048;-60
2022/11/26 04:36:43;;;;;;;27.13;11.32;;;;;;;;;;5016257;28;20022;-61
2022/11/26 04:39:11;;;;;;;26.98;10.93;;;;;;;;;;5015940;28;20088;-60
2022/11/26 04:41:38;;;;;;;27.42;10.77;;;;;;;;;;5016023;28;20058;-60
2022/11/26 04:44:05;;;;;;;30.25;11.40;;;;;;;;;;5014677;28;20029;-61
2022/11/26 04:46:32;;;;;;;28.48;10.57;;;;;;;;;;5016035;28;20034;-61
2022/11/26 04:48:59;;;;;;;27.48;10.30;;;;;;;;;;5015747;28;20488;-60
2022/11/26 04:51:26;;;;;;;25.55;11.07;;;;;;;;;;5015766;28;20038;-60
2022/11/26 04:53:53;;;;;;;23.05;9.57;;;;;;;;;;5015861;28;20026;-60
2022/11/26 04:56:20;;;;;;;27.15;9.85;;;;;;;;;;5015908;28;20026;-60
2022/11/26 04:58:47;;;;;;;23.85;9.93;;;;;;;;;;5015474;28;20400;-61
2022/11/26 05:01:14;;;;;;;27.27;10.13;;;;;;;;;;5015793;28;20031;-61
2022/11/26 05:03:41;;;;;;;24.80;10.00;;;;;;;;;;5015616;28;20026;-61
2022/11/26 05:06:10;;;;;;;32.03;10.45;;;;;;;;;;5014765;28;20034;-60
2022/11/26 05:08:37;;;;;;;22.60;8.70;;;;;;;;;;5015534;28;20049;-60
2022/11/26 05:11:04;;;;;;;26.95;9.18;;;;;;;;;;5015277;28;20042;-60
2022/11/26 05:13:31;;;;;;;28.35;9.90;;;;;;;;;;5015568;28;20109;-61
2022/11/26 05:15:58;;;;;;;24.55;9.57;;;;;;;;;;5015584;28;20387;-60
2022/11/26 05:18:25;;;;;;;23.35;9.25;;;;;;;;;;5015327;28;20034;-60
2022/11/26 05:20:52;;;;;;;27.20;9.88;;;;;;;;;;5015458;28;20041;-61
2022/11/26 05:23:19;;;;;;;19.63;8.82;;;;;;;;;;5015397;28;20387;-60
2022/11/26 05:25:46;;;;;;;25.38;9.10;;;;;;;;;;5015369;28;20424;-60
2022/11/26 05:28:14;;;;;;;22.85;8.63;;;;;;;;;;5015065;28;20037;-61
2022/11/26 05:30:41;;;;;;;20.67;8.68;;;;;;;;;;5014935;28;20058;-60
2022/11/26 05:33:08;;;;;;;28.08;8.57;;;;;;;;;;5015197;28;20028;-60
2022/11/26 05:35:35;;;;;;;21.17;8.27;;;;;;;;;;5015151;28;20037;-61
2022/11/26 05:38:02;;;;;;;25.88;9.05;;;;;;;;;;5015003;28;20022;-60
2022/11/26 05:40:28;;;;;;;21.58;8.90;;;;;;;;;;5014815;28;20030;-60
2022/11/26 05:42:55;;;;;;;23.63;8.60;;;;;;;;;;5014947;28;20097;-60
2022/11/26 05:45:22;;;;;;;18.77;8.70;;;;;;;;;;5014929;28;20029;-61
2022/11/26 05:47:49;;;;;;;17.42;7.95;;;;;;;;;;5014746;28;20018;-61
2022/11/26 05:50:16;;;;;;;20.85;8.63;;;;;;;;;;5014913;28;20026;-60
2022/11/26 05:52:43;;;;;;;22.02;8.43;;;;;;;;;;5014766;28;20034;-60
2022/11/26 05:55:10;;;;;;;22.02;8.60;;;;;;;;;;5014763;28;20034;-61
2022/11/26 05:57:37;;;;;;;19.63;8.07;;;;;;;;;;5014624;28;20025;-61
2022/11/26 06:00:05;;;;;;;18.67;8.43;;;;;;;;;;5014645;28;20030;-60
2022/11/26 06:02:32;;;;;;;22.08;8.13;;;;;;;;;;5027396;28;20026;-60
2022/11/26 06:05:00;;;;;;;21.92;8.07;;;;;;;;;;5034255;28;20033;-60
2022/11/26 06:07:27;;;;;;;22.55;8.30;;;;;;;;;;5034215;28;20108;-60
2022/11/26 06:09:54;;;;;;;18.08;7.15;;;;;;;;;;5034098;28;20124;-60
2022/11/26 06:12:21;;;;;;;19.23;7.78;;;;;;;;;;5034251;28;20025;-61
2022/11/26 06:14:48;;;;;;;16.58;7.57;;;;;;;;;;5034233;28;20052;-60
2022/11/26 06:17:15;;;;;;;17.27;7.72;;;;;;;;;;5033999;28;20033;-60
2022/11/26 06:19:42;;;;;;;22.75;7.65;;;;;;;;;;5033273;28;20037;-60
2022/11/26 06:22:09;;;;;;;19.10;7.72;;;;;;;;;;5033723;28;20025;-60
2022/11/26 06:24:36;;;;;;;19.40;7.25;;;;;;;;;;5033906;28;20037;-60
2022/11/26 06:27:03;;;;;;;15.13;6.93;;;;;;;;;;5033865;28;20130;-60
2022/11/26 06:29:30;;;;;;;19.33;7.78;;;;;;;;;;5033802;28;20064;-60
2022/11/26 06:31:57;;;;;;;16.15;6.82;;;;;;;;;;5033858;28;20120;-62
2022/11/26 06:34:24;;;;;;;18.35;6.95;;;;;;;;;;5033682;28;20029;-60
2022/11/26 06:36:51;;;;;;;22.15;7.35;;;;;;;;;;5033702;28;20029;-60
2022/11/26 06:39:18;;;;;;;18.60;7.40;;;;;;;;;;5033507;28;20040;-61
2022/11/26 06:41:45;;;;;;;19.35;6.82;;;;;;;;;;5032513;28;20104;-60
2022/11/26 06:44:12;;;;;;;20.48;7.68;;;;;;;;;;5033725;28;20037;-60
2022/11/26 06:46:39;;;;;;;17.08;7.45;;;;;;;;;;5033552;28;20498;-60
2022/11/26 06:49:06;;;;;;;17.63;6.88;;;;;;;;;;5033322;28;20100;-60
2022/11/26 06:51:33;;;;;;;13.52;6.53;;;;;;;;;;5033386;28;20052;-60
2022/11/26 06:54:01;;;;;;;15.77;7.28;;;;;;;;;;5033408;28;20018;-61
2022/11/26 06:56:28;;;;;;;16.52;7.00;;;;;;;;;;5033395;28;20104;-60
2022/11/26 06:58:55;;;;;;;17.30;6.40;;;;;;;;;;5033105;28;20475;-60
2022/11/26 07:01:23;;;;;;;17.25;6.43;;;;;;;;;;5033121;28;20022;-60
2022/11/26 07:03:50;;;;;;;20.70;5.65;;;;;;;;;;5033151;28;20032;-60
2022/11/26 07:06:28;;;;;;;20.33;5.88;;;;;;;;;;5033249;28;20029;-60
2022/11/26 07:08:55;;;;;;;26.95;5.85;;;;;;;;;;5032804;28;20025;-60
2022/11/26 07:11:23;;;;;;;28.83;5.55;;;;;;;;;;5033063;28;20029;-60
2022/11/26 07:13:50;;;;;;;27.33;5.25;;;;;;;;;;5033224;28;20390;-60
2022/11/26 07:16:17;;;;;;;25.60;5.75;;;;;;;;;;5032969;28;20369;-60
2022/11/26 07:18:48;;;;;;;34.58;5.43;;;;;;;;;;5032826;28;20090;-60
2022/11/26 07:21:15;;;;;;;30.50;5.78;;;;;;;;;;5032993;28;20568;-60
2022/11/26 07:23:42;;;;;;;22.80;5.40;;;;;;;;;;5033040;28;20067;-61
2022/11/26 07:26:09;;;;;;;21.90;5.30;;;;;;;;;;5032911;28;20022;-62
2022/11/26 07:28:36;;;;;;;25.85;4.93;;;;;;;;;;5032395;28;20036;-62
2022/11/26 07:31:14;;;;;;;23.95;4.80;;;;;;;;;;5032951;28;20483;-62
2022/11/26 07:33:41;;;;;;;19.58;4.90;;;;;;;;;;5032857;28;20022;-62
2022/11/26 07:36:15;;;;;;;18.42;5.30;;;;;;;;;;5032744;28;20034;-61
2022/11/26 07:38:42;;;;;;;22.55;5.15;;;;;;;;;;5032594;28;20083;-62
2022/11/26 07:41:11;;;;;;;21.35;5.55;;;;;;;;;;5032615;28;20080;-61
2022/11/26 07:43:39;;;;;;;18.23;4.78;;;;;;;;;;5032444;28;20029;-60
2022/11/26 07:46:07;;;;;;;20.67;4.53;;;;;;;;;;5032633;28;20041;-60
2022/11/26 07:48:34;;;;;;;21.05;4.47;;;;;;;;;;5032405;28;20033;-60
2022/11/26 07:51:02;;;;;;;26.17;5.00;;;;;;;;;;5032608;28;20033;-60
2022/11/26 07:53:33;;;;;;;20.55;4.47;;;;;;;;;;5032602;28;20022;-60
2022/11/26 07:56:00;;;;;;;20.92;5.00;;;;;;;;;;5032470;28;20040;-60
2022/11/26 07:58:27;;;;;;;22.90;5.22;;;;;;;;;;5032431;28;20022;-60
2022/11/26 08:00:54;;;;;;;15.98;4.60;;;;;;;;;;5032265;28;20096;-60
2022/11/26 08:03:21;;;;;;;23.17;4.57;;;;;;;;;;5032568;28;20368;-60
2022/11/26 08:05:48;;;;;;;17.98;5.53;;;;;;;;;;5031129;28;20060;-60
2022/11/26 08:08:15;;;;;;;14.50;4.50;;;;;;;;;;5032570;28;20038;-60
2022/11/26 08:10:42;;;;;;;20.92;5.25;;;;;;;;;;5032237;28;20125;-60
2022/11/26 08:13:09;;;;;;;17.48;4.80;;;;;;;;;;5032386;28;20021;-60
2022/11/26 08:15:36;;;;;;;13.60;4.53;;;;;;;;;;5032364;28;20649;-60
2022/11/26 08:18:03;;;;;;;17.27;5.20;;;;;;;;;;5032338;28;20068;-60
2022/11/26 08:20:30;;;;;;;17.65;4.60;;;;;;;;;;5032251;28;20391;-60
2022/11/26 08:22:57;;;;;;;11.38;3.78;;;;;;;;;;5032174;28;20529;-60
2022/11/26 08:25:24;;;;;;;11.45;4.45;;;;;;;;;;5032362;28;20490;-60
2022/11/26 08:27:51;;;;;;;18.13;5.10;;;;;;;;;;5032137;28;20022;-60
2022/11/26 08:30:18;;;;;;;18.67;4.18;;;;;;;;;;5032337;28;20029;-61
2022/11/26 08:32:45;;;;;;;13.48;4.45;;;;;;;;;;5032201;28;20128;-60
2022/11/26 08:35:12;;;;;;;12.55;4.57;;;;;;;;;;5032284;28;20052;-60
2022/11/26 08:37:39;;;;;;;12.25;4.45;;;;;;;;;;5031967;28;20080;-60
2022/11/26 08:40:06;;;;;;;14.40;4.70;;;;;;;;;;5032021;28;20036;-60
2022/11/26 08:42:33;;;;;;;17.08;4.50;;;;;;;;;;5035696;28;20080;-61
2022/11/26 08:45:00;;;;;;;12.93;4.90;;;;;;;;;;5035860;28;20030;-60
2022/11/26 08:47:28;;;;;;;15.85;4.47;;;;;;;;;;5035656;28;20028;-60
2022/11/26 08:49:55;;;;;;;11.43;4.00;;;;;;;;;;5035720;28;20037;-61
2022/11/26 08:52:22;;;;;;;14.80;4.50;;;;;;;;;;5035588;28;20457;-61
2022/11/26 08:54:49;;;;;;;12.07;4.15;;;;;;;;;;5035701;28;20091;-60
2022/11/26 08:57:16;;;;;;;14.27;4.55;;;;;;;;;;5035594;28;20100;-60
2022/11/26 08:59:43;;;;;;;13.57;4.00;;;;;;;;;;5035598;28;20045;-63
2022/11/26 09:02:11;;;;;;;11.00;4.47;;;;;;;;;;5034091;28;20022;-62
2022/11/26 09:04:38;;;;;;;15.40;4.75;;;;;;;;;;5035605;28;20120;-62
2022/11/26 09:07:05;;;;;;;12.95;5.05;;;;;;;;;;5035476;28;20889;-62
2022/11/26 09:09:32;;;;;;;12.48;4.55;;;;;;;;;;5035239;28;20200;-61
2022/11/26 09:12:01;;;;;;;11.32;4.45;;;;;;;;;;5035275;28;20038;-62
2022/11/26 09:14:30;;;;;;;12.07;4.50;;;;;;;;;;5035384;28;20077;-62
2022/11/26 09:16:57;;;;;;;11.57;4.38;;;;;;;;;;5035013;28;20475;-61
2022/11/26 09:19:24;;;;;;;12.45;4.13;;;;;;;;;;5035159;28;20033;-62
2022/11/26 09:21:51;;;;;;;15.00;4.10;;;;;;;;;;5035076;28;20061;-62
2022/11/26 09:24:20;;;;;;;12.50;4.50;;;;;;;;;;5035171;28;20029;-61
2022/11/26 09:26:47;;;;;;;13.73;5.05;;;;;;;;;;5034853;28;20040;-62
2022/11/26 09:29:15;;;;;;;10.48;4.28;;;;;;;;;;5033694;28;20029;-62
2022/11/26 09:31:43;;;;;;;12.23;4.13;;;;;;;;;;5033217;28;20049;-62
2022/11/26 09:34:10;;;;;;;10.43;4.35;;;;;;;;;;5033428;28;20479;-61
2022/11/26 09:36:37;;;;;;;8.45;4.10;;;;;;;;;;5034070;28;20030;-60
2022/11/26 09:39:04;;;;;;;22.70;5.00;;;;;;;;;;5034684;28;20029;-62
2022/11/26 09:41:31;;;;;;;21.63;4.18;;;;;;;;;;5033141;28;20114;-61
2022/11/26 09:44:04;;;;;;;19.38;4.82;;;;;;;;;;5034078;28;20033;-61
2022/11/26 09:46:34;;;;;;;26.48;4.55;;;;;;;;;;5033211;28;20029;-60
2022/11/26 09:49:02;;;;;;;26.48;4.57;;;;;;;;;;5033876;28;20052;-61
2022/11/26 09:51:30;;;;;;;21.10;5.07;;;;;;;;;;5033882;28;20129;-61
2022/11/26 09:53:57;;;;;;;23.88;4.55;;;;;;;;;;5033862;28;20391;-60
2022/11/26 09:56:25;;;;;;;28.48;4.88;;;;;;;;;;5034101;28;20080;-63
2022/11/26 09:59:01;;;;;;;19.80;4.28;;;;;;;;;;5034195;28;20025;-61
2022/11/26 10:01:30;;;;;;;19.35;4.50;;;;;;;;;;5034109;28;20038;-62
2022/11/26 10:03:57;;;;;;;22.00;4.43;;;;;;;;;;5033750;28;20071;-62
2022/11/26 10:06:39;;;;;;;25.38;5.30;;;;;;;;;;5034086;28;20052;-62
2022/11/26 10:09:21;;;;;;;23.95;4.80;;;;;;;;;;5033690;28;20041;-62
2022/11/26 10:12:06;;;;;;;32.00;5.32;;;;;;;;;;5033986;28;20040;-62
2022/11/26 10:14:45;;;;;;;31.48;5.07;;;;;;;;;;5033651;28;20040;-60
2022/11/26 10:17:28;;;;;;;32.15;5.38;;;;;;;;;;5033809;28;20017;-60
2022/11/26 10:20:12;;;;;;;29.27;5.63;;;;;;;;;;5034050;28;20087;-60
2022/11/26 10:22:59;;;;;;;29.00;5.45;;;;;;;;;;5033668;28;20036;-60
2022/11/26 10:25:29;;;;;;;31.80;5.10;;;;;;;;;;5033469;28;20053;-60
2022/11/26 10:27:57;;;;;;;21.50;4.40;;;;;;;;;;5033518;28;20022;-60
2022/11/26 10:30:28;;;;;;;22.52;4.72;;;;;;;;;;5033785;28;20533;-61
2022/11/26 10:32:57;;;;;;;27.05;5.28;;;;;;;;;;5033504;28;20109;-62
2022/11/26 10:35:26;;;;;;;21.40;4.35;;;;;;;;;;5033200;28;20036;-62
2022/11/26 10:37:54;;;;;;;22.92;4.72;;;;;;;;;;5033303;28;20064;-60
2022/11/26 10:40:24;;;;;;;25.73;5.72;;;;;;;;;;5033468;28;20026;-60
2022/11/26 10:43:11;;;;;;;22.17;4.85;;;;;;;;;;5033251;28;20071;-60
2022/11/26 10:45:40;;;;;;;29.48;4.82;;;;;;;;;;5033089;28;20037;-62
2022/11/26 10:48:26;;;;;;;30.60;5.53;;;;;;;;;;5033192;28;20025;-61
2022/11/26 10:50:55;;;;;;;29.33;5.13;;;;;;;;;;5033026;28;20491;-60
2022/11/26 10:53:24;;;;;;;26.75;5.03;;;;;;;;;;5032930;28;20088;-60
2022/11/26 10:55:52;;;;;;;24.55;5.07;;;;;;;;;;5033418;28;20047;-60
2022/11/26 10:58:33;;;;;;;26.73;4.72;;;;;;;;;;5032902;28;20053;-61
2022/11/26 11:01:02;;;;;;;21.63;4.80;;;;;;;;;;5032903;28;20042;-60
2022/11/26 11:03:31;;;;;;;28.08;5.68;;;;;;;;;;5032476;28;20024;-60
2022/11/26 11:06:12;;;;;;;29.75;5.68;;;;;;;;;;5032917;28;20690;-61
2022/11/26 11:08:39;;;;;;;24.25;5.03;;;;;;;;;;5032722;28;20494;-61
2022/11/26 11:11:18;;;;;;;25.75;5.05;;;;;;;;;;5032742;28;20038;-61
2022/11/26 11:13:46;;;;;;;25.02;5.18;;;;;;;;;;5032495;28;20024;-60
2022/11/26 11:16:14;;;;;;;23.63;4.65;;;;;;;;;;5032580;28;20036;-62
2022/11/26 11:18:50;;;;;;;28.27;5.05;;;;;;;;;;5032882;28;20502;-61
2022/11/26 11:21:19;;;;;;;17.55;4.45;;;;;;;;;;5032261;28;20510;-60
2022/11/26 11:23:46;;;;;;;23.40;5.63;;;;;;;;;;5032664;28;20112;-60
2022/11/26 11:26:16;;;;;;;28.40;5.40;;;;;;;;;;5032778;28;20025;-60
2022/11/26 11:28:46;;;;;;;24.92;5.05;;;;;;;;;;5032138;28;20495;-61
2022/11/26 11:31:16;;;;;;;24.02;5.00;;;;;;;;;;5032705;28;20036;-62
2022/11/26 11:33:43;;;;;;;23.95;4.68;;;;;;;;;;5032553;28;20025;-62
2022/11/26 11:36:13;;;;;;;25.23;5.00;;;;;;;;;;5032175;28;20029;-62
2022/11/26 11:39:07;;;;;;;20.95;5.05;;;;;;;;;;5032690;28;20383;-62
2022/11/26 11:41:37;;;;;;;21.80;4.57;;;;;;;;;;5030681;28;20488;-62
2022/11/26 11:44:24;;;;;;;21.60;5.28;;;;;;;;;;5031963;28;20029;-62
2022/11/26 11:47:01;;;;;;;24.75;5.00;;;;;;;;;;5032330;28;20491;-62
2022/11/26 11:49:39;;;;;;;23.70;4.93;;;;;;;;;;5031960;28;20022;-61
2022/11/26 11:52:09;;;;;;;21.38;4.68;;;;;;;;;;5032473;28;20026;-60
2022/11/26 11:54:47;;;;;;;15.90;4.60;;;;;;;;;;5032496;28;20026;-60
2022/11/26 11:57:31;;;;;;;20.55;4.57;;;;;;;;;;5029390;28;20029;-60
2022/11/26 12:00:14;;;;;;;28.85;5.40;;;;;;;;;;5030274;28;20503;-60
2022/11/26 12:02:55;;;;;;;26.83;5.28;;;;;;;;;;5032111;28;20051;-59
2022/11/26 12:05:30;;;;;;;23.60;5.13;;;;;;;;;;5031735;28;20022;-59
2022/11/26 12:08:00;;;;;;;24.40;4.82;;;;;;;;;;5032347;28;20026;-59
2022/11/26 12:10:45;;;;;;;37.95;6.20;;;;;;;;;;5031802;28;20050;-59
2022/11/26 12:13:14;;;;;;;33.30;5.85;;;;;;;;;;5031926;28;20026;-59
2022/11/26 12:15:55;;;;;;;29.35;5.15;;;;;;;;;;5034594;28;20415;-59
2022/11/26 12:18:30;;;;;;;27.55;5.50;;;;;;;;;;5034250;28;20087;-61
2022/11/26 12:21:04;;;;;;;33.78;5.05;;;;;;;;;;5035698;28;20037;-60
2022/11/26 12:23:35;;;;;;;27.73;5.30;;;;;;;;;;5035999;28;20431;-59
2022/11/26 12:26:20;;;;;;;20.70;4.10;;;;;;;;;;5035733;28;20040;-61
2022/11/26 12:29:06;;;;;;;25.40;4.25;;;;;;;;;;5035923;28;20120;-60
2022/11/26 12:31:36;;;;;;;32.03;5.28;;;;;;;;;;5035844;28;20431;-61
2022/11/26 12:34:21;;;;;;;30.08;5.00;;;;;;;;;;5035648;28;20091;-61
2022/11/26 12:36:52;;;;;;;37.67;6.25;;;;;;;;;;5035959;28;20483;-60
2022/11/26 12:39:28;;;;;;;26.42;4.70;;;;;;;;;;5035658;28;20033;-60
2022/11/26 12:42:14;;;;;;;32.17;5.55;;;;;;;;;;5035578;28;20467;-60
2022/11/26 12:44:43;;;;;;;33.72;5.63;;;;;;;;;;5035683;28;20036;-59
2022/11/26 12:47:17;;;;;;;95.63;9.90;;;;;;;;;;5034734;28;20418;-59
2022/11/26 12:50:07;;;;;;;62.20;8.25;;;;;;;;;;5034962;28;20571;-59
2022/11/26 12:52:46;;;;;;;51.33;7.35;;;;;;;;;;5035188;28;20049;-59
2022/11/26 12:55:13;;;;;;;71.05;8.77;;;;;;;;;;5035322;28;20052;-61
2022/11/26 12:57:43;;;;;;;51.13;7.30;;;;;;;;;;5020217;28;20357;-59
2022/11/26 13:00:20;;;;;;;52.85;6.05;;;;;;;;;;5021658;28;20060;-61
2022/11/26 13:02:50;;;;;;;63.45;7.13;;;;;;;;;;5025339;28;20021;-59
2022/11/26 13:05:20;;;;;;;45.17;6.35;;;;;;;;;;5015374;28;20024;-60
2022/11/26 13:07:47;;;;;;;42.08;6.68;;;;;;;;;;5015094;28;20029;-59
2022/11/26 13:10:23;;;;;;;41.45;5.88;;;;;;;;;;5015478;28;20497;-59
2022/11/26 13:12:57;;;;;;;38.55;5.43;;;;;;;;;;5014791;28;20083;-59
2022/11/26 13:15:28;;;;;;;45.70;6.47;;;;;;;;;;5015272;28;20049;-61
2022/11/26 13:17:58;;;;;;;49.78;6.57;;;;;;;;;;5015351;28;20037;-61
2022/11/26 13:20:27;;;;;;;39.42;6.47;;;;;;;;;;5014920;28;20033;-61
2022/11/26 13:22:54;;;;;;;37.85;6.75;;;;;;;;;;5015161;28;20048;-59
2022/11/26 13:25:30;;;;;;;43.45;7.15;;;;;;;;;;5015259;28;20495;-60
2022/11/26 13:27:57;;;;;;;37.72;6.22;;;;;;;;;;5014309;28;20417;-61
2022/11/26 13:30:35;;;;;;;31.75;5.78;;;;;;;;;;5015128;28;20028;-61
2022/11/26 13:33:25;;;;;;;35.72;6.35;;;;;;;;;;5014592;28;20092;-61
2022/11/26 13:36:10;;;;;;;43.83;6.72;;;;;;;;;;5015098;28;20052;-61
2022/11/26 13:38:56;;;;;;;36.85;6.50;;;;;;;;;;5015070;28;20431;-61
2022/11/26 13:41:25;;;;;;;38.03;6.63;;;;;;;;;;5014528;28;20061;-61
2022/11/26 13:44:10;;;;;;;35.28;5.90;;;;;;;;;;5015091;28;20109;-60
2022/11/26 13:46:41;;;;;;;32.70;6.32;;;;;;;;;;5014619;28;20101;-61
2022/11/26 13:49:15;;;;;;;35.72;5.90;;;;;;;;;;5014418;28;20101;-61
2022/11/26 13:51:45;;;;;;;38.80;5.80;;;;;;;;;;5014848;28;20045;-61
2022/11/26 13:54:21;;;;;;;39.95;7.45;;;;;;;;;;5014573;28;20498;-61
2022/11/26 13:56:48;;;;;;;42.13;7.25;;;;;;;;;;5014397;28;20423;-60
2022/11/26 13:59:17;;;;;;;45.55;7.50;;;;;;;;;;5014397;28;20021;-61
2022/11/26 14:01:45;;;;;;;48.20;8.15;;;;;;;;;;5014396;28;20053;-61
2022/11/26 14:04:12;;;;;;;56.65;8.02;;;;;;;;;;5014243;28;20104;-61
2022/11/26 14:06:59;;;;;;;60.30;8.93;;;;;;;;;;5014138;28;20022;-61
2022/11/26 14:09:47;;;;;;;45.88;7.78;;;;;;;;;;5007017;28;20038;-61
2022/11/26 14:12:14;;;;;;;50.45;9.00;;;;;;;;;;5013823;28;20029;-61
2022/11/26 14:14:42;;;;;;;45.65;7.35;;;;;;;;;;5013967;28;20104;-59
2022/11/26 14:17:09;;;;;;;46.80;7.28;;;;;;;;;;5027175;28;20033;-61
2022/11/26 14:19:42;;;;;;;47.53;8.18;;;;;;;;;;5032222;28;20396;-59
2022/11/26 14:22:11;;;;;;;55.78;8.15;;;;;;;;;;5033521;28;20032;-62
2022/11/26 14:24:50;;;;;;;63.05;8.40;;;;;;;;;;5033556;28;20049;-71
2022/11/26 14:27:22;;;;;;;60.20;9.10;;;;;;;;;;5033733;28;20049;-61
2022/11/26 14:30:00;;;;;;;59.97;8.07;;;;;;;;;;5027527;28;20479;-64
2022/11/26 14:32:29;;;;;;;49.35;7.65;;;;;;;;;;5028677;28;20483;-62
2022/11/26 14:34:57;;;;;;;47.63;7.72;;;;;;;;;;5030695;28;20499;-62
2022/11/26 14:37:29;;;;;;;40.25;8.10;;;;;;;;;;5037353;28;20475;-60
2022/11/26 14:39:58;;;;;;;49.10;7.93;;;;;;;;;;5030178;28;20775;-60
2022/11/26 14:42:26;;;;;;;62.10;8.52;;;;;;;;;;5025408;28;20348;-56
2022/11/26 14:45:06;;;;;;;45.95;8.15;;;;;;;;;;5023794;28;20108;-55